createdAt,value
2022-11-08T00:00:36.923Z,0.00
2022-11-08T00:01:38.748Z,0.00
2022-11-08T00:02:36.363Z,0.00
2022-11-08T00:03:36.602Z,0.00
2022-11-08T00:04:36.883Z,0.00
2022-11-08T00:05:36.874Z,0.00
2022-11-08T00:06:36.742Z,0.00
2022-11-08T00:07:36.864Z,0.00
2022-11-08T00:08:36.832Z,0.00
2022-11-08T00:09:36.804Z,0.00
2022-11-08T00:10:36.815Z,0.00
2022-11-08T00:11:36.795Z,0.00
2022-11-08T00:12:36.186Z,0.00
2022-11-08T00:13:37.557Z,0.00
2022-11-08T00:14:36.766Z,0.00
2022-11-08T00:15:36.107Z,0.00
2022-11-08T00:16:36.116Z,0.00
2022-11-08T00:17:36.843Z,0.00
2022-11-08T00:18:36.720Z,0.00
2022-11-08T00:19:36.026Z,0.00
2022-11-08T00:20:36.007Z,0.00
2022-11-08T00:21:36.087Z,0.00
2022-11-08T00:22:36.032Z,0.00
2022-11-08T00:23:36.667Z,0.00
2022-11-08T00:24:36.669Z,0.00
2022-11-08T00:25:36.651Z,0.00
2022-11-08T00:26:35.962Z,0.00
2022-11-08T00:27:35.985Z,0.00
2022-11-08T00:28:35.979Z,0.00
2022-11-08T00:29:35.970Z,0.00
2022-11-08T00:30:36.859Z,0.00
2022-11-08T00:31:36.579Z,0.00
2022-11-08T00:32:36.569Z,0.00
2022-11-08T00:33:36.554Z,0.00
2022-11-08T00:34:35.872Z,0.00
2022-11-08T00:35:35.889Z,0.00
2022-11-08T00:36:36.790Z,0.00
2022-11-08T00:37:35.874Z,0.00
2022-11-08T00:38:35.849Z,0.00
2022-11-08T00:39:35.843Z,0.00
2022-11-08T00:40:36.513Z,0.00
2022-11-08T00:41:36.481Z,0.00
2022-11-08T00:42:35.823Z,0.00
2022-11-08T00:43:36.740Z,0.00
2022-11-08T00:44:35.760Z,0.00
2022-11-08T00:45:37.754Z,0.00
2022-11-08T00:46:35.801Z,0.00
2022-11-08T00:47:36.415Z,0.00
2022-11-08T00:48:36.421Z,0.00
2022-11-08T00:49:36.396Z,0.00
2022-11-08T00:50:36.374Z,0.00
2022-11-08T00:51:35.756Z,0.00
2022-11-08T00:52:37.707Z,0.00
2022-11-08T00:53:36.372Z,0.00
2022-11-08T00:54:35.682Z,0.00
2022-11-08T00:55:35.665Z,0.00
2022-11-08T00:56:35.711Z,0.00
2022-11-08T00:57:57.968Z,0.00
2022-11-08T00:58:37.311Z,0.00
2022-11-08T00:59:37.536Z,0.00
2022-11-08T01:00:35.662Z,0.00
2022-11-08T01:01:36.352Z,0.00
2022-11-08T01:02:35.700Z,0.00
2022-11-08T01:03:36.328Z,0.00
2022-11-08T01:04:36.588Z,0.00
2022-11-08T01:05:36.518Z,0.00
2022-11-08T01:06:37.519Z,0.00
2022-11-08T01:07:35.560Z,0.00
2022-11-08T01:08:36.198Z,0.00
2022-11-08T01:09:36.188Z,0.00
2022-11-08T01:10:35.509Z,0.00
2022-11-08T01:11:36.186Z,0.00
2022-11-08T01:12:35.521Z,0.00
2022-11-08T01:13:36.131Z,0.00
2022-11-08T01:14:35.492Z,0.00
2022-11-08T01:15:36.647Z,0.00
2022-11-08T01:16:35.432Z,0.00
2022-11-08T01:17:35.461Z,0.00
2022-11-08T01:18:35.403Z,0.00
2022-11-08T01:19:35.412Z,0.00
2022-11-08T01:20:36.061Z,0.00
2022-11-08T01:21:35.540Z,0.00
2022-11-08T01:22:36.042Z,0.00
2022-11-08T01:23:36.022Z,0.00
2022-11-08T01:24:35.363Z,0.00
2022-11-08T01:25:35.348Z,0.00
2022-11-08T01:26:35.982Z,0.00
2022-11-08T01:27:36.842Z,0.00
2022-11-08T01:28:37.227Z,0.00
2022-11-08T01:29:36.214Z,0.00
2022-11-08T01:30:35.952Z,0.00
2022-11-08T01:31:35.950Z,0.00
2022-11-08T01:32:35.931Z,0.00
2022-11-08T01:33:35.909Z,0.00
2022-11-08T01:34:36.688Z,0.00
2022-11-08T01:35:35.208Z,0.00
2022-11-08T01:36:35.196Z,0.00
2022-11-08T01:37:35.187Z,0.00
2022-11-08T01:38:35.870Z,0.00
2022-11-08T01:39:35.926Z,0.00
2022-11-08T01:40:35.826Z,0.00
2022-11-08T01:41:37.077Z,0.00
2022-11-08T01:42:35.163Z,0.00
2022-11-08T01:43:36.077Z,0.00
2022-11-08T01:44:37.048Z,0.00
2022-11-08T01:45:36.078Z,0.00
2022-11-08T01:46:36.049Z,0.00
2022-11-08T01:47:37.030Z,0.00
2022-11-08T01:48:37.078Z,0.00
2022-11-08T01:49:37.079Z,0.00
2022-11-08T01:50:37.016Z,0.00
2022-11-08T01:51:36.012Z,0.00
2022-11-08T01:52:36.519Z,0.00
2022-11-08T01:53:37.012Z,0.00
2022-11-08T01:54:36.932Z,0.00
2022-11-08T01:55:35.963Z,0.00
2022-11-08T01:56:36.966Z,0.00
2022-11-08T01:57:36.952Z,0.00
2022-11-08T01:58:34.970Z,0.00
2022-11-08T01:59:35.900Z,0.00
2022-11-08T02:00:34.961Z,0.00
2022-11-08T02:01:35.937Z,0.00
2022-11-08T02:02:36.066Z,0.00
2022-11-08T02:03:35.982Z,0.00
2022-11-08T02:04:36.823Z,0.00
2022-11-08T02:05:35.564Z,0.00
2022-11-08T02:06:36.802Z,0.00
2022-11-08T02:07:36.797Z,0.00
2022-11-08T02:08:35.531Z,0.00
2022-11-08T02:09:35.504Z,0.00
2022-11-08T02:10:34.836Z,0.00
2022-11-08T02:11:36.753Z,0.00
2022-11-08T02:12:35.755Z,0.00
2022-11-08T02:13:36.763Z,0.00
2022-11-08T02:14:35.727Z,0.00
2022-11-08T02:15:35.726Z,0.00
2022-11-08T02:16:36.754Z,0.00
2022-11-08T02:17:35.726Z,0.00
2022-11-08T02:18:36.204Z,0.00
2022-11-08T02:19:36.688Z,0.00
2022-11-08T02:20:37.453Z,0.00
2022-11-08T02:21:36.735Z,0.00
2022-11-08T02:22:36.687Z,0.00
2022-11-08T02:23:36.627Z,0.00
2022-11-08T02:24:36.606Z,0.00
2022-11-08T02:25:36.136Z,0.00
2022-11-08T02:26:36.586Z,0.00
2022-11-08T02:27:35.608Z,0.00
2022-11-08T02:28:35.567Z,0.00
2022-11-08T02:29:36.559Z,0.00
2022-11-08T02:30:36.547Z,0.00
2022-11-08T02:31:36.549Z,0.00
2022-11-08T02:32:35.539Z,0.00
2022-11-08T02:33:35.568Z,0.00
2022-11-08T02:34:35.529Z,0.00
2022-11-08T02:35:36.499Z,0.00
2022-11-08T02:36:35.492Z,0.00
2022-11-08T02:37:35.311Z,0.00
2022-11-08T02:38:35.470Z,0.00
2022-11-08T02:39:35.595Z,0.00
2022-11-08T02:40:36.440Z,0.00
2022-11-08T02:41:36.412Z,0.00
2022-11-08T02:42:36.415Z,0.00
2022-11-08T02:43:37.200Z,0.00
2022-11-08T02:44:35.412Z,0.00
2022-11-08T02:45:35.425Z,0.00
2022-11-08T02:46:35.462Z,0.00
2022-11-08T02:47:35.103Z,0.00
2022-11-08T02:48:36.445Z,0.00
2022-11-08T02:49:36.351Z,0.00
2022-11-08T02:50:36.323Z,0.00
2022-11-08T02:51:35.322Z,0.00
2022-11-08T02:52:34.375Z,0.00
2022-11-08T02:53:35.022Z,0.00
2022-11-08T02:54:36.295Z,0.00
2022-11-08T02:55:35.313Z,0.00
2022-11-08T02:56:35.347Z,0.00
2022-11-08T02:57:36.266Z,0.00
2022-11-08T02:58:35.725Z,0.00
2022-11-08T02:59:36.242Z,0.00
2022-11-08T03:00:35.225Z,0.00
2022-11-08T03:01:36.311Z,0.00
2022-11-08T03:02:35.261Z,0.00
2022-11-08T03:03:35.183Z,0.00
2022-11-08T03:04:36.195Z,0.00
2022-11-08T03:05:35.146Z,0.00
2022-11-08T03:06:36.167Z,0.00
2022-11-08T03:07:34.877Z,0.00
2022-11-08T03:08:34.846Z,0.00
2022-11-08T03:09:34.177Z,0.00
2022-11-08T03:10:34.168Z,0.00
2022-11-08T03:11:34.826Z,0.00
2022-11-08T03:12:34.816Z,0.00
2022-11-08T03:13:34.809Z,0.00
2022-11-08T03:14:34.155Z,0.00
2022-11-08T03:15:34.787Z,0.00
2022-11-08T03:16:34.770Z,0.00
2022-11-08T03:17:35.037Z,0.00
2022-11-08T03:18:34.092Z,0.00
2022-11-08T03:19:35.810Z,0.00
2022-11-08T03:20:34.711Z,0.00
2022-11-08T03:21:34.718Z,0.00
2022-11-08T03:22:35.050Z,0.00
2022-11-08T03:23:34.028Z,0.00
2022-11-08T03:24:34.022Z,0.00
2022-11-08T03:25:35.934Z,0.00
2022-11-08T03:26:35.042Z,0.00
2022-11-08T03:27:35.920Z,0.00
2022-11-08T03:28:35.917Z,0.00
2022-11-08T03:29:34.903Z,0.00
2022-11-08T03:30:34.044Z,0.00
2022-11-08T03:31:34.870Z,0.00
2022-11-08T03:32:35.974Z,0.00
2022-11-08T03:33:33.909Z,0.00
2022-11-08T03:34:34.844Z,0.00
2022-11-08T03:35:33.874Z,0.00
2022-11-08T03:36:34.557Z,0.00
2022-11-08T03:37:33.873Z,0.00
2022-11-08T03:38:34.534Z,0.00
2022-11-08T03:39:33.841Z,0.00
2022-11-08T03:40:34.763Z,0.00
2022-11-08T03:41:34.495Z,0.00
2022-11-08T03:42:34.492Z,0.00
2022-11-08T03:43:34.481Z,0.00
2022-11-08T03:44:34.456Z,0.00
2022-11-08T03:45:34.480Z,0.00
2022-11-08T03:46:33.783Z,0.00
2022-11-08T03:47:33.766Z,0.00
2022-11-08T03:48:35.734Z,0.00
2022-11-08T03:49:35.718Z,0.00
2022-11-08T03:50:34.685Z,0.00
2022-11-08T03:51:34.646Z,0.00
2022-11-08T03:52:34.385Z,0.00
2022-11-08T03:53:34.365Z,0.00
2022-11-08T03:54:33.668Z,0.00
2022-11-08T03:55:33.664Z,0.00
2022-11-08T03:56:35.617Z,0.00
2022-11-08T03:57:34.327Z,0.00
2022-11-08T03:58:33.649Z,0.00
2022-11-08T03:59:34.451Z,0.00
2022-11-08T04:00:34.561Z,0.00
2022-11-08T04:01:34.582Z,0.00
2022-11-08T04:02:33.770Z,0.00
2022-11-08T04:03:34.549Z,0.00
2022-11-08T04:04:34.251Z,0.00
2022-11-08T04:05:34.239Z,0.00
2022-11-08T04:06:34.219Z,0.00
2022-11-08T04:07:34.215Z,0.00
2022-11-08T04:08:35.492Z,0.00
2022-11-08T04:09:34.200Z,0.00
2022-11-08T04:10:34.455Z,0.00
2022-11-08T04:11:34.314Z,0.00
2022-11-08T04:12:34.161Z,0.00
2022-11-08T04:13:34.335Z,0.00
2022-11-08T04:14:34.231Z,0.00
2022-11-08T04:15:34.149Z,0.00
2022-11-08T04:16:34.475Z,0.00
2022-11-08T04:17:34.255Z,0.00
2022-11-08T04:18:35.355Z,0.00
2022-11-08T04:19:34.235Z,0.00
2022-11-08T04:20:34.248Z,0.00
2022-11-08T04:21:34.341Z,0.00
2022-11-08T04:22:34.054Z,0.00
2022-11-08T04:23:35.328Z,0.00
2022-11-08T04:24:34.200Z,0.00
2022-11-08T04:25:35.527Z,0.00
2022-11-08T04:26:34.283Z,0.00
2022-11-08T04:27:34.252Z,0.00
2022-11-08T04:28:34.732Z,0.00
2022-11-08T04:29:33.975Z,0.00
2022-11-08T04:30:33.269Z,0.00
2022-11-08T04:31:33.971Z,0.00
2022-11-08T04:32:33.275Z,0.00
2022-11-08T04:33:35.197Z,0.00
2022-11-08T04:34:33.249Z,0.00
2022-11-08T04:35:33.915Z,0.00
2022-11-08T04:36:34.159Z,0.00
2022-11-08T04:37:33.896Z,0.00
2022-11-08T04:38:35.177Z,0.00
2022-11-08T04:39:33.878Z,0.00
2022-11-08T04:40:33.857Z,0.00
2022-11-08T04:41:35.119Z,0.00
2022-11-08T04:42:33.157Z,0.00
2022-11-08T04:43:34.635Z,0.00
2022-11-08T04:44:33.210Z,0.00
2022-11-08T04:45:33.137Z,0.00
2022-11-08T04:46:35.060Z,0.00
2022-11-08T04:47:38.845Z,0.00
2022-11-08T04:48:34.134Z,0.00
2022-11-08T04:49:34.060Z,0.00
2022-11-08T04:50:34.129Z,0.00
2022-11-08T04:51:33.751Z,0.00
2022-11-08T04:52:33.070Z,0.00
2022-11-08T04:53:33.993Z,0.00
2022-11-08T04:54:33.969Z,0.00
2022-11-08T04:55:33.021Z,0.00
2022-11-08T04:56:33.038Z,0.00
2022-11-08T04:57:33.000Z,0.00
2022-11-08T04:58:33.662Z,0.00
2022-11-08T04:59:33.655Z,0.00
2022-11-08T05:00:33.085Z,0.00
2022-11-08T05:01:33.073Z,0.00
2022-11-08T05:02:33.748Z,0.00
2022-11-08T05:03:33.611Z,0.00
2022-11-08T05:04:33.843Z,0.00
2022-11-08T05:05:32.931Z,0.00
2022-11-08T05:06:33.604Z,0.00
2022-11-08T05:07:32.890Z,0.00
2022-11-08T05:08:33.652Z,0.00
2022-11-08T05:09:33.546Z,0.00
2022-11-08T05:10:33.534Z,0.00
2022-11-08T05:11:33.538Z,0.00
2022-11-08T05:12:32.875Z,0.00
2022-11-08T05:13:33.507Z,0.00
2022-11-08T05:14:32.864Z,0.00
2022-11-08T05:15:33.493Z,0.00
2022-11-08T05:16:32.785Z,0.00
2022-11-08T05:17:33.475Z,0.00
2022-11-08T05:18:32.775Z,0.00
2022-11-08T05:19:32.787Z,0.00
2022-11-08T05:20:33.409Z,0.00
2022-11-08T05:21:32.749Z,0.00
2022-11-08T05:22:33.406Z,0.00
2022-11-08T05:23:32.725Z,0.00
2022-11-08T05:24:32.716Z,0.00
2022-11-08T05:25:33.381Z,0.00
2022-11-08T05:26:33.347Z,0.00
2022-11-08T05:27:32.690Z,0.00
2022-11-08T05:28:33.348Z,0.00
2022-11-08T05:29:34.262Z,0.00
2022-11-08T05:30:33.316Z,0.00
2022-11-08T05:31:33.317Z,0.00
2022-11-08T05:32:32.738Z,0.00
2022-11-08T05:33:33.289Z,0.00
2022-11-08T05:34:33.549Z,0.00
2022-11-08T05:35:32.932Z,0.00
2022-11-08T05:36:33.263Z,0.00
2022-11-08T05:37:32.610Z,0.00
2022-11-08T05:38:32.584Z,0.00
2022-11-08T05:39:33.221Z,0.00
2022-11-08T05:40:33.584Z,0.00
2022-11-08T05:41:32.550Z,0.00
2022-11-08T05:42:33.200Z,0.00
2022-11-08T05:43:32.503Z,0.00
2022-11-08T05:44:33.162Z,0.00
2022-11-08T05:45:33.162Z,0.00
2022-11-08T05:46:33.175Z,0.00
2022-11-08T05:47:32.482Z,0.00
2022-11-08T05:48:33.142Z,0.00
2022-11-08T05:49:32.473Z,0.00
2022-11-08T05:50:33.203Z,0.00
2022-11-08T05:51:32.446Z,0.00
2022-11-08T05:52:33.368Z,0.00
2022-11-08T05:53:33.291Z,0.00
2022-11-08T05:54:32.426Z,0.00
2022-11-08T05:55:32.374Z,0.00
2022-11-08T05:56:33.114Z,0.00
2022-11-08T05:57:33.033Z,0.00
2022-11-08T05:58:32.374Z,0.00
2022-11-08T05:59:33.026Z,0.00
2022-11-08T06:00:32.358Z,0.00
2022-11-08T06:01:33.913Z,0.00
2022-11-08T06:02:33.111Z,0.00
2022-11-08T06:03:32.387Z,0.00
2022-11-08T06:04:32.308Z,0.00
2022-11-08T06:05:32.303Z,0.00
2022-11-08T06:06:32.947Z,0.00
2022-11-08T06:07:32.271Z,0.00
2022-11-08T06:08:33.000Z,0.00
2022-11-08T06:09:32.281Z,0.00
2022-11-08T06:10:32.218Z,0.00
2022-11-08T06:11:32.888Z,0.00
2022-11-08T06:12:32.238Z,0.00
2022-11-08T06:13:33.413Z,0.00
2022-11-08T06:14:32.248Z,0.00
2022-11-08T06:15:33.412Z,0.00
2022-11-08T06:16:32.837Z,0.00
2022-11-08T06:17:32.821Z,0.00
2022-11-08T06:18:32.824Z,0.00
2022-11-08T06:19:32.811Z,0.00
2022-11-08T06:20:32.781Z,0.00
2022-11-08T06:21:32.803Z,0.00
2022-11-08T06:22:32.779Z,5.62
2022-11-08T06:23:32.769Z,5.62
2022-11-08T06:24:32.753Z,5.62
2022-11-08T06:25:35.803Z,5.62
2022-11-08T06:26:32.064Z,5.62
2022-11-08T06:27:32.052Z,5.62
2022-11-08T06:28:32.031Z,5.62
2022-11-08T06:29:32.702Z,5.62
2022-11-08T06:30:32.715Z,5.62
2022-11-08T06:31:31.996Z,5.62
2022-11-08T06:32:32.673Z,5.62
2022-11-08T06:33:32.007Z,5.62
2022-11-08T06:34:32.642Z,5.62
2022-11-08T06:35:32.633Z,5.62
2022-11-08T06:36:32.625Z,5.62
2022-11-08T06:37:31.949Z,11.25
2022-11-08T06:38:32.035Z,11.25
2022-11-08T06:39:32.584Z,11.25
2022-11-08T06:40:32.574Z,11.25
2022-11-08T06:41:32.579Z,16.88
2022-11-08T06:42:31.911Z,16.88
2022-11-08T06:43:31.868Z,16.88
2022-11-08T06:44:31.888Z,22.50
2022-11-08T06:45:32.526Z,22.50
2022-11-08T06:46:32.506Z,22.50
2022-11-08T06:47:32.504Z,22.50
2022-11-08T06:48:35.762Z,28.12
2022-11-08T06:49:31.796Z,28.12
2022-11-08T06:50:31.894Z,33.75
2022-11-08T06:51:32.456Z,33.75
2022-11-08T06:52:32.449Z,33.75
2022-11-08T06:53:32.459Z,39.38
2022-11-08T06:54:32.026Z,39.38
2022-11-08T06:55:32.412Z,45.00
2022-11-08T06:56:31.793Z,45.00
2022-11-08T06:57:32.388Z,50.62
2022-11-08T06:58:32.383Z,50.62
2022-11-08T06:59:32.376Z,56.25
2022-11-08T07:00:32.378Z,56.25
2022-11-08T07:01:31.802Z,56.25
2022-11-08T07:02:32.091Z,56.25
2022-11-08T07:03:32.332Z,61.88
2022-11-08T07:04:32.320Z,61.88
2022-11-08T07:05:32.311Z,61.88
2022-11-08T07:06:31.621Z,61.88
2022-11-08T07:07:31.699Z,67.50
2022-11-08T07:08:31.701Z,67.50
2022-11-08T07:09:31.626Z,73.12
2022-11-08T07:10:32.253Z,78.75
2022-11-08T07:11:32.243Z,84.38
2022-11-08T07:12:31.563Z,84.38
2022-11-08T07:13:32.294Z,95.62
2022-11-08T07:14:31.661Z,101.25
2022-11-08T07:15:32.214Z,106.88
2022-11-08T07:16:31.543Z,106.88
2022-11-08T07:17:38.330Z,106.88
2022-11-08T07:18:32.593Z,106.88
2022-11-08T07:19:31.490Z,112.50
2022-11-08T07:20:31.493Z,118.12
2022-11-08T07:21:32.134Z,118.12
2022-11-08T07:22:31.443Z,118.12
2022-11-08T07:23:32.122Z,129.38
2022-11-08T07:24:31.415Z,140.62
2022-11-08T07:25:31.439Z,146.25
2022-11-08T07:26:31.425Z,151.88
2022-11-08T07:27:32.073Z,146.25
2022-11-08T07:28:31.396Z,135.00
2022-11-08T07:29:32.795Z,140.62
2022-11-08T07:30:31.361Z,151.88
2022-11-08T07:31:32.039Z,118.12
2022-11-08T07:32:32.016Z,118.12
2022-11-08T07:33:32.008Z,118.12
2022-11-08T07:34:31.341Z,123.75
2022-11-08T07:35:32.000Z,123.75
2022-11-08T07:36:31.300Z,129.38
2022-11-08T07:37:31.292Z,140.62
2022-11-08T07:38:31.311Z,146.25
2022-11-08T07:39:31.936Z,185.62
2022-11-08T07:40:31.248Z,202.50
2022-11-08T07:41:31.919Z,213.75
2022-11-08T07:42:50.053Z,191.25
2022-11-08T07:43:33.260Z,163.12
2022-11-08T07:44:31.199Z,163.12
2022-11-08T07:45:31.192Z,180.00
2022-11-08T07:46:31.192Z,196.88
2022-11-08T07:47:32.621Z,219.38
2022-11-08T07:48:31.185Z,196.88
2022-11-08T07:49:31.261Z,247.50
2022-11-08T07:50:31.821Z,275.62
2022-11-08T07:51:31.845Z,247.50
2022-11-08T07:52:31.129Z,270.00
2022-11-08T07:53:31.132Z,320.62
2022-11-08T07:54:32.053Z,315.00
2022-11-08T07:55:31.131Z,309.38
2022-11-08T07:56:31.763Z,298.12
2022-11-08T07:57:31.072Z,281.25
2022-11-08T07:58:31.742Z,303.75
2022-11-08T07:59:31.794Z,315.00
2022-11-08T08:00:31.045Z,331.88
2022-11-08T08:01:31.175Z,337.50
2022-11-08T08:02:31.036Z,343.12
2022-11-08T08:03:31.200Z,337.50
2022-11-08T08:04:30.981Z,320.62
2022-11-08T08:05:31.706Z,286.88
2022-11-08T08:06:30.965Z,275.62
2022-11-08T08:07:30.955Z,275.62
2022-11-08T08:08:31.023Z,292.50
2022-11-08T08:09:30.946Z,309.38
2022-11-08T08:10:30.975Z,303.75
2022-11-08T08:11:33.824Z,315.00
2022-11-08T08:12:31.580Z,326.25
2022-11-08T08:13:30.999Z,331.88
2022-11-08T08:14:30.868Z,360.00
2022-11-08T08:15:31.009Z,365.62
2022-11-08T08:16:31.732Z,354.38
2022-11-08T08:17:31.018Z,371.25
2022-11-08T08:18:30.820Z,371.25
2022-11-08T08:19:31.088Z,354.38
2022-11-08T08:20:31.507Z,337.50
2022-11-08T08:21:30.850Z,365.62
2022-11-08T08:22:30.779Z,371.25
2022-11-08T08:23:30.794Z,371.25
2022-11-08T08:24:30.773Z,365.62
2022-11-08T08:25:30.783Z,382.50
2022-11-08T08:26:31.430Z,292.50
2022-11-08T08:27:30.770Z,275.62
2022-11-08T08:28:30.724Z,303.75
2022-11-08T08:29:31.407Z,253.12
2022-11-08T08:30:31.389Z,343.12
2022-11-08T08:31:31.461Z,382.50
2022-11-08T08:32:31.781Z,264.38
2022-11-08T08:33:30.753Z,309.38
2022-11-08T08:34:30.682Z,427.50
2022-11-08T08:35:30.629Z,337.50
2022-11-08T08:36:30.632Z,286.88
2022-11-08T08:37:31.294Z,466.88
2022-11-08T08:38:30.774Z,382.50
2022-11-08T08:39:30.781Z,354.38
2022-11-08T08:40:30.776Z,433.12
2022-11-08T08:41:30.587Z,511.88
2022-11-08T08:42:30.697Z,545.62
2022-11-08T08:43:30.693Z,450.00
2022-11-08T08:44:30.559Z,292.50
2022-11-08T08:45:31.217Z,309.38
2022-11-08T08:46:30.715Z,635.62
2022-11-08T08:47:30.495Z,691.88
2022-11-08T08:48:30.546Z,641.25
2022-11-08T08:49:30.617Z,613.12
2022-11-08T08:50:31.183Z,585.00
2022-11-08T08:51:30.472Z,511.88
2022-11-08T08:52:30.766Z,613.12
2022-11-08T08:53:30.810Z,630.00
2022-11-08T08:54:30.478Z,630.00
2022-11-08T08:55:30.548Z,630.00
2022-11-08T08:56:30.417Z,568.12
2022-11-08T08:57:30.689Z,534.38
2022-11-08T08:58:30.704Z,292.50
2022-11-08T09:01:38.637Z,466.88
2022-11-08T09:02:32.261Z,450.00
2022-11-08T09:03:30.523Z,455.62
2022-11-08T09:04:30.665Z,416.25
2022-11-08T09:05:30.541Z,433.12
2022-11-08T09:06:30.852Z,365.62
2022-11-08T09:07:30.289Z,360.00
2022-11-08T09:08:30.766Z,320.62
2022-11-08T09:09:30.362Z,354.38
2022-11-08T09:10:30.276Z,320.62
2022-11-08T09:11:30.819Z,354.38
2022-11-08T09:12:30.927Z,382.50
2022-11-08T09:13:30.224Z,393.75
2022-11-08T09:14:30.214Z,376.88
2022-11-08T09:15:30.198Z,326.25
2022-11-08T09:16:30.916Z,303.75
2022-11-08T09:17:30.267Z,309.38
2022-11-08T09:18:30.306Z,331.88
2022-11-08T09:19:30.175Z,331.88
2022-11-08T09:20:30.211Z,309.38
2022-11-08T09:21:30.211Z,309.38
2022-11-08T09:22:30.125Z,270.00
2022-11-08T09:23:30.108Z,275.62
2022-11-08T09:24:30.598Z,281.25
2022-11-08T09:25:30.103Z,241.88
2022-11-08T09:26:30.108Z,241.88
2022-11-08T09:27:30.188Z,236.25
2022-11-08T09:28:31.674Z,230.62
2022-11-08T09:29:30.089Z,241.88
2022-11-08T09:30:30.067Z,253.12
2022-11-08T09:31:30.019Z,219.38
2022-11-08T09:32:46.603Z,213.75
2022-11-08T09:33:31.095Z,219.38
2022-11-08T09:34:30.172Z,219.38
2022-11-08T09:35:30.124Z,236.25
2022-11-08T09:36:30.772Z,230.62
2022-11-08T09:37:29.971Z,225.00
2022-11-08T09:38:29.963Z,230.62
2022-11-08T09:39:30.079Z,230.62
2022-11-08T09:40:29.960Z,230.62
2022-11-08T09:41:29.926Z,208.12
2022-11-08T09:42:29.943Z,213.75
2022-11-08T09:43:31.822Z,213.75
2022-11-08T09:44:29.872Z,213.75
2022-11-08T09:45:29.875Z,208.12
2022-11-08T09:46:29.863Z,208.12
2022-11-08T09:47:29.922Z,202.50
2022-11-08T09:48:29.984Z,202.50
2022-11-08T09:49:29.853Z,202.50
2022-11-08T09:50:29.975Z,202.50
2022-11-08T09:51:30.495Z,202.50
2022-11-08T09:52:29.804Z,208.12
2022-11-08T09:53:30.725Z,219.38
2022-11-08T09:54:29.798Z,219.38
2022-11-08T09:55:29.773Z,225.00
2022-11-08T09:56:30.437Z,230.62
2022-11-08T09:57:29.769Z,230.62
2022-11-08T09:58:29.752Z,219.38
2022-11-08T09:59:30.411Z,219.38
2022-11-08T10:00:30.466Z,219.38
2022-11-08T10:01:29.757Z,213.75
2022-11-08T10:02:29.721Z,213.75
2022-11-08T10:03:29.680Z,213.75
2022-11-08T10:04:29.667Z,213.75
2022-11-08T10:05:29.660Z,213.75
2022-11-08T10:06:30.391Z,213.75
2022-11-08T10:07:30.790Z,208.12
2022-11-08T10:08:30.310Z,213.75
2022-11-08T10:09:29.627Z,225.00
2022-11-08T10:10:30.287Z,213.75
2022-11-08T10:11:30.281Z,208.12
2022-11-08T10:12:29.630Z,219.38
2022-11-08T10:13:29.660Z,230.62
2022-11-08T10:14:30.241Z,230.62
2022-11-08T10:15:29.541Z,225.00
2022-11-08T10:16:30.223Z,219.38
2022-11-08T10:17:30.221Z,213.75
2022-11-08T10:18:30.184Z,202.50
2022-11-08T10:19:30.206Z,208.12
2022-11-08T10:20:29.516Z,213.75
2022-11-08T10:21:30.184Z,213.75
2022-11-08T10:22:29.492Z,219.38
2022-11-08T10:23:30.135Z,225.00
2022-11-08T10:24:30.195Z,225.00
2022-11-08T10:25:29.423Z,225.00
2022-11-08T10:26:30.407Z,225.00
2022-11-08T10:27:29.421Z,225.00
2022-11-08T10:28:30.102Z,225.00
2022-11-08T10:29:30.090Z,225.00
2022-11-08T10:30:30.056Z,230.62
2022-11-08T10:31:30.057Z,236.25
2022-11-08T10:32:30.045Z,241.88
2022-11-08T10:33:30.277Z,241.88
2022-11-08T10:34:30.016Z,247.50
2022-11-08T10:35:29.337Z,253.12
2022-11-08T10:36:29.356Z,253.12
2022-11-08T10:37:30.024Z,247.50
2022-11-08T10:38:29.297Z,247.50
2022-11-08T10:39:29.989Z,247.50
2022-11-08T10:40:29.966Z,241.88
2022-11-08T10:41:30.711Z,241.88
2022-11-08T10:42:29.939Z,241.88
2022-11-08T10:43:29.944Z,241.88
2022-11-08T10:44:29.259Z,241.88
2022-11-08T10:45:29.909Z,241.88
2022-11-08T10:46:30.641Z,241.88
2022-11-08T10:47:30.561Z,236.25
2022-11-08T10:48:29.237Z,236.25
2022-11-08T10:49:29.199Z,236.25
2022-11-08T10:50:29.162Z,236.25
2022-11-08T10:51:29.168Z,230.62
2022-11-08T10:52:29.821Z,230.62
2022-11-08T10:53:29.820Z,230.62
2022-11-08T10:54:30.223Z,230.62
2022-11-08T10:55:29.135Z,225.00
2022-11-08T10:56:29.939Z,225.00
2022-11-08T10:57:29.791Z,225.00
2022-11-08T10:58:29.763Z,219.38
2022-11-08T10:59:29.772Z,219.38
2022-11-08T11:00:29.106Z,230.62
2022-11-08T11:01:29.152Z,225.00
2022-11-08T11:02:29.181Z,225.00
2022-11-08T11:03:29.106Z,230.62
2022-11-08T11:04:29.696Z,230.62
2022-11-08T11:05:29.046Z,230.62
2022-11-08T11:06:29.070Z,225.00
2022-11-08T11:07:28.985Z,225.00
2022-11-08T11:08:28.955Z,230.62
2022-11-08T11:09:29.637Z,225.00
2022-11-08T11:10:29.670Z,225.00
2022-11-08T11:11:28.947Z,225.00
2022-11-08T11:12:28.941Z,225.00
2022-11-08T11:13:28.931Z,225.00
2022-11-08T11:14:28.906Z,225.00
2022-11-08T11:15:29.577Z,225.00
2022-11-08T11:16:29.558Z,225.00
2022-11-08T11:17:28.886Z,225.00
2022-11-08T11:18:28.929Z,225.00
2022-11-08T11:19:28.861Z,225.00
2022-11-08T11:20:29.533Z,219.38
2022-11-08T11:21:29.500Z,213.75
2022-11-08T11:22:28.824Z,208.12
2022-11-08T11:23:28.813Z,202.50
2022-11-08T11:24:28.903Z,196.88
2022-11-08T11:25:29.475Z,196.88
2022-11-08T11:26:29.455Z,191.25
2022-11-08T11:27:29.441Z,191.25
2022-11-08T11:28:28.794Z,196.88
2022-11-08T11:29:28.751Z,196.88
2022-11-08T11:30:28.760Z,196.88
2022-11-08T11:31:28.763Z,196.88
2022-11-08T11:32:29.392Z,202.50
2022-11-08T11:33:29.437Z,202.50
2022-11-08T11:34:28.683Z,196.88
2022-11-08T11:35:28.683Z,196.88
2022-11-08T11:36:28.686Z,191.25
2022-11-08T11:37:29.355Z,196.88
2022-11-08T11:38:29.324Z,196.88
2022-11-08T11:39:29.313Z,196.88
2022-11-08T11:40:33.765Z,196.88
2022-11-08T11:41:28.687Z,196.88
2022-11-08T11:42:46.732Z,202.50
2022-11-08T11:43:29.851Z,208.12
2022-11-08T11:44:30.395Z,202.50
2022-11-08T11:45:28.549Z,202.50
2022-11-08T11:46:30.070Z,208.12
2022-11-08T11:47:28.547Z,208.12
2022-11-08T11:48:29.295Z,213.75
2022-11-08T11:49:29.202Z,213.75
2022-11-08T11:50:29.188Z,202.50
2022-11-08T11:51:28.578Z,208.12
2022-11-08T11:52:29.161Z,213.75
2022-11-08T11:53:28.518Z,208.12
2022-11-08T11:54:28.583Z,202.50
2022-11-08T11:55:28.470Z,202.50
2022-11-08T11:56:28.444Z,202.50
2022-11-08T11:57:28.420Z,202.50
2022-11-08T11:58:30.121Z,196.88
2022-11-08T11:59:28.430Z,202.50
2022-11-08T12:00:28.412Z,196.88
2022-11-08T12:01:29.084Z,196.88
2022-11-08T12:02:28.463Z,202.50
2022-11-08T12:03:28.351Z,202.50
2022-11-08T12:04:28.353Z,202.50
2022-11-08T12:05:29.025Z,202.50
2022-11-08T12:06:28.415Z,202.50
2022-11-08T12:07:29.002Z,202.50
2022-11-08T12:08:28.302Z,191.25
2022-11-08T12:09:28.293Z,191.25
2022-11-08T12:10:28.980Z,185.62
2022-11-08T12:11:28.376Z,185.62
2022-11-08T12:12:29.024Z,185.62
2022-11-08T12:13:28.276Z,185.62
2022-11-08T12:14:28.342Z,185.62
2022-11-08T12:15:28.263Z,185.62
2022-11-08T12:16:28.225Z,185.62
2022-11-08T12:17:28.218Z,185.62
2022-11-08T12:18:42.140Z,185.62
2022-11-08T12:19:30.617Z,180.00
2022-11-08T12:20:28.197Z,180.00
2022-11-08T12:21:28.186Z,174.38
2022-11-08T12:22:28.915Z,174.38
2022-11-08T12:23:28.827Z,174.38
2022-11-08T12:24:28.163Z,174.38
2022-11-08T12:25:28.211Z,180.00
2022-11-08T12:26:28.119Z,185.62
2022-11-08T12:27:28.109Z,196.88
2022-11-08T12:28:28.140Z,191.25
2022-11-08T12:29:28.153Z,196.88
2022-11-08T12:30:29.628Z,196.88
2022-11-08T12:31:28.131Z,202.50
2022-11-08T12:32:28.728Z,202.50
2022-11-08T12:33:28.723Z,202.50
2022-11-08T12:34:28.717Z,196.88
2022-11-08T12:35:28.699Z,191.25
2022-11-08T12:36:28.689Z,196.88
2022-11-08T12:37:28.004Z,191.25
2022-11-08T12:38:28.006Z,185.62
2022-11-08T12:39:28.003Z,185.62
2022-11-08T12:40:28.021Z,191.25
2022-11-08T12:41:28.626Z,185.62
2022-11-08T12:42:28.117Z,185.62
2022-11-08T12:43:28.894Z,185.62
2022-11-08T12:44:27.933Z,185.62
2022-11-08T12:45:27.972Z,180.00
2022-11-08T12:46:28.576Z,174.38
2022-11-08T12:47:27.883Z,168.75
2022-11-08T12:48:28.137Z,163.12
2022-11-08T12:49:28.007Z,163.12
2022-11-08T12:50:27.888Z,163.12
2022-11-08T12:51:28.004Z,157.50
2022-11-08T12:52:27.994Z,151.88
2022-11-08T12:53:28.032Z,146.25
2022-11-08T12:54:28.016Z,146.25
2022-11-08T12:55:27.807Z,135.00
2022-11-08T12:56:27.797Z,129.38